Swakopmund, Namibia
Current Conditions -  °F | °C
As of 7:00 PM on Sunday 25 Jan 2015 (Local Time) from FYRN Reporting Station
Clear Clear  
Wind Chill: 81°   Ceiling: Unl
Heat Index: 81°   Visibility: 6mi
Dew Point: 52°   Wind: 0mph
Humidity: 37%   Direction: NA
Pressure: 29.91"   Gusts: NA
Location:  22.67°S, 14.52°E
Report Text: FYRN 251800Z 00000KT CAVOK 27/11 Q1013
Loading
Personal Weather Stations






























Interactive Weather Map New forecast layout! Learn more

10-Day Weather Forecast

Advertisements
Track Severe Weather on mobile